sensor_id;sensor_type;location;lat;lon;timestamp;P1;durP1;ratioP1;P2;durP2;ratioP2
10126;SDS011;13080;42.608;23.362;2023-11-19T00:02:24;2.38;;;1.65;;
10126;SDS011;13080;42.608;23.362;2023-11-19T00:04:51;1.73;;;1.63;;
10126;SDS011;13080;42.608;23.362;2023-11-19T00:07:20;4.50;;;2.20;;
10126;SDS011;13080;42.608;23.362;2023-11-19T00:09:46;2.78;;;2.22;;
10126;SDS011;13080;42.608;23.362;2023-11-19T00:12:13;2.33;;;1.77;;
10126;SDS011;13080;42.608;23.362;2023-11-19T00:14:40;3.10;;;1.70;;
10126;SDS011;13080;42.608;23.362;2023-11-19T00:17:07;3.35;;;2.22;;
10126;SDS011;13080;42.608;23.362;2023-11-19T00:19:34;3.80;;;1.75;;
10126;SDS011;13080;42.608;23.362;2023-11-19T00:22:00;2.10;;;1.90;;
10126;SDS011;13080;42.608;23.362;2023-11-19T00:24:29;4.85;;;2.15;;
10126;SDS011;13080;42.608;23.362;2023-11-19T00:26:56;3.75;;;2.50;;
10126;SDS011;13080;42.608;23.362;2023-11-19T00:29:23;3.75;;;1.88;;
10126;SDS011;13080;42.608;23.362;2023-11-19T00:31:50;3.10;;;2.30;;
10126;SDS011;13080;42.608;23.362;2023-11-19T00:34:17;3.25;;;1.77;;
10126;SDS011;13080;42.608;23.362;2023-11-19T00:36:46;3.58;;;2.22;;
10126;SDS011;13080;42.608;23.362;2023-11-19T00:39:14;2.42;;;2.00;;
10126;SDS011;13080;42.608;23.362;2023-11-19T00:41:42;4.00;;;2.40;;
10126;SDS011;13080;42.608;23.362;2023-11-19T00:44:11;4.10;;;2.22;;
10126;SDS011;13080;42.608;23.362;2023-11-19T00:46:38;2.17;;;1.63;;
10126;SDS011;13080;42.608;23.362;2023-11-19T00:49:05;3.05;;;1.80;;
10126;SDS011;13080;42.608;23.362;2023-11-19T00:51:32;2.50;;;1.88;;
10126;SDS011;13080;42.608;23.362;2023-11-19T00:53:59;3.53;;;2.83;;
10126;SDS011;13080;42.608;23.362;2023-11-19T00:56:26;2.63;;;1.92;;
10126;SDS011;13080;42.608;23.362;2023-11-19T00:58:54;2.72;;;2.13;;
10126;SDS011;13080;42.608;23.362;2023-11-19T01:01:22;3.45;;;1.95;;
10126;SDS011;13080;42.608;23.362;2023-11-19T01:03:49;2.30;;;1.73;;
10126;SDS011;13080;42.608;23.362;2023-11-19T01:06:26;2.35;;;1.83;;
10126;SDS011;13080;42.608;23.362;2023-11-19T01:08:53;2.50;;;2.30;;
10126;SDS011;13080;42.608;23.362;2023-11-19T01:11:21;2.65;;;2.45;;
10126;SDS011;13080;42.608;23.362;2023-11-19T01:13:49;2.08;;;1.88;;
10126;SDS011;13080;42.608;23.362;2023-11-19T01:16:17;3.55;;;2.42;;
10126;SDS011;13080;42.608;23.362;2023-11-19T01:18:46;3.35;;;2.15;;
10126;SDS011;13080;42.608;23.362;2023-11-19T01:21:13;3.60;;;2.05;;
10126;SDS011;13080;42.608;23.362;2023-11-19T01:23:40;2.72;;;2.03;;
10126;SDS011;13080;42.608;23.362;2023-11-19T01:26:08;2.50;;;1.92;;
10126;SDS011;13080;42.608;23.362;2023-11-19T01:28:37;2.08;;;1.75;;
10126;SDS011;13080;42.608;23.362;2023-11-19T01:31:05;2.72;;;2.50;;
10126;SDS011;13080;42.608;23.362;2023-11-19T01:33:35;2.60;;;2.05;;
10126;SDS011;13080;42.608;23.362;2023-11-19T01:36:02;2.20;;;1.98;;
10126;SDS011;13080;42.608;23.362;2023-11-19T01:38:29;3.03;;;2.15;;
10126;SDS011;13080;42.608;23.362;2023-11-19T01:40:57;2.50;;;2.05;;
10126;SDS011;13080;42.608;23.362;2023-11-19T01:43:33;2.85;;;2.40;;
10126;SDS011;13080;42.608;23.362;2023-11-19T01:46:01;2.95;;;2.65;;
10126;SDS011;13080;42.608;23.362;2023-11-19T01:48:29;2.05;;;1.75;;
10126;SDS011;13080;42.608;23.362;2023-11-19T01:50:59;2.55;;;1.65;;
10126;SDS011;13080;42.608;23.362;2023-11-19T01:53:27;2.83;;;2.35;;
10126;SDS011;13080;42.608;23.362;2023-11-19T01:55:55;2.33;;;2.10;;
10126;SDS011;13080;42.608;23.362;2023-11-19T01:58:23;2.17;;;1.98;;
10126;SDS011;13080;42.608;23.362;2023-11-19T02:00:51;2.83;;;2.00;;
10126;SDS011;13080;42.608;23.362;2023-11-19T02:03:18;2.20;;;1.90;;
10126;SDS011;13080;42.608;23.362;2023-11-19T02:05:47;4.72;;;1.95;;
10126;SDS011;13080;42.608;23.362;2023-11-19T02:08:17;2.28;;;1.90;;
10126;SDS011;13080;42.608;23.362;2023-11-19T02:10:44;2.22;;;1.80;;
10126;SDS011;13080;42.608;23.362;2023-11-19T02:13:11;2.95;;;1.83;;
10126;SDS011;13080;42.608;23.362;2023-11-19T02:15:40;2.03;;;1.73;;
10126;SDS011;13080;42.608;23.362;2023-11-19T02:18:20;1.52;;;1.42;;
10126;SDS011;13080;42.608;23.362;2023-11-19T02:20:48;3.30;;;1.52;;
10126;SDS011;13080;42.608;23.362;2023-11-19T02:23:15;1.85;;;1.60;;
10126;SDS011;13080;42.608;23.362;2023-11-19T02:25:47;2.17;;;1.73;;
10126;SDS011;13080;42.608;23.362;2023-11-19T02:28:19;1.60;;;1.50;;
10126;SDS011;13080;42.608;23.362;2023-11-19T02:30:47;4.05;;;1.85;;
10126;SDS011;13080;42.608;23.362;2023-11-19T02:33:13;3.13;;;1.85;;
10126;SDS011;13080;42.608;23.362;2023-11-19T02:35:40;2.42;;;1.42;;
10126;SDS011;13080;42.608;23.362;2023-11-19T02:38:07;3.83;;;2.50;;
10126;SDS011;13080;42.608;23.362;2023-11-19T02:40:34;3.45;;;1.80;;
10126;SDS011;13080;42.608;23.362;2023-11-19T02:43:01;2.30;;;1.83;;
10126;SDS011;13080;42.608;23.362;2023-11-19T02:45:31;1.95;;;1.70;;
10126;SDS011;13080;42.608;23.362;2023-11-19T02:47:58;2.70;;;2.17;;
10126;SDS011;13080;42.608;23.362;2023-11-19T02:50:27;2.20;;;1.65;;
10126;SDS011;13080;42.608;23.362;2023-11-19T02:52:54;2.30;;;1.65;;
10126;SDS011;13080;42.608;23.362;2023-11-19T02:55:22;2.38;;;2.03;;
10126;SDS011;13080;42.608;23.362;2023-11-19T02:57:50;1.90;;;1.60;;
10126;SDS011;13080;42.608;23.362;2023-11-19T03:00:18;2.60;;;1.60;;
10126;SDS011;13080;42.608;23.362;2023-11-19T03:02:54;2.88;;;2.05;;
10126;SDS011;13080;42.608;23.362;2023-11-19T03:05:25;1.58;;;1.30;;
10126;SDS011;13080;42.608;23.362;2023-11-19T03:07:55;2.00;;;1.42;;
10126;SDS011;13080;42.608;23.362;2023-11-19T03:10:22;1.92;;;1.65;;
10126;SDS011;13080;42.608;23.362;2023-11-19T03:12:49;1.70;;;1.58;;
10126;SDS011;13080;42.608;23.362;2023-11-19T03:15:16;3.00;;;1.63;;
10126;SDS011;13080;42.608;23.362;2023-11-19T03:17:42;2.75;;;1.83;;
10126;SDS011;13080;42.608;23.362;2023-11-19T03:20:11;2.53;;;1.58;;
10126;SDS011;13080;42.608;23.362;2023-11-19T03:22:40;2.17;;;1.85;;
10126;SDS011;13080;42.608;23.362;2023-11-19T03:25:08;2.28;;;2.00;;
10126;SDS011;13080;42.608;23.362;2023-11-19T03:27:35;2.50;;;1.70;;
10126;SDS011;13080;42.608;23.362;2023-11-19T03:30:04;1.77;;;1.42;;
10126;SDS011;13080;42.608;23.362;2023-11-19T03:32:31;2.30;;;1.40;;
10126;SDS011;13080;42.608;23.362;2023-11-19T03:35:00;1.63;;;1.30;;
10126;SDS011;13080;42.608;23.362;2023-11-19T03:37:30;2.00;;;1.60;;
10126;SDS011;13080;42.608;23.362;2023-11-19T03:39:58;2.95;;;1.70;;
10126;SDS011;13080;42.608;23.362;2023-11-19T03:42:25;1.77;;;1.60;;
10126;SDS011;13080;42.608;23.362;2023-11-19T03:44:51;3.42;;;1.70;;
10126;SDS011;13080;42.608;23.362;2023-11-19T03:47:19;1.85;;;1.70;;
10126;SDS011;13080;42.608;23.362;2023-11-19T03:49:47;2.45;;;1.73;;
10126;SDS011;13080;42.608;23.362;2023-11-19T03:52:14;4.03;;;2.30;;
10126;SDS011;13080;42.608;23.362;2023-11-19T03:54:43;5.07;;;1.95;;
10126;SDS011;13080;42.608;23.362;2023-11-19T03:57:10;2.85;;;1.90;;
10126;SDS011;13080;42.608;23.362;2023-11-19T03:59:37;1.80;;;1.52;;
10126;SDS011;13080;42.608;23.362;2023-11-19T04:02:04;3.08;;;1.80;;
10126;SDS011;13080;42.608;23.362;2023-11-19T04:04:31;1.95;;;1.75;;
10126;SDS011;13080;42.608;23.362;2023-11-19T04:06:59;2.80;;;1.85;;
10126;SDS011;13080;42.608;23.362;2023-11-19T04:09:28;1.58;;;1.42;;
10126;SDS011;13080;42.608;23.362;2023-11-19T04:11:56;1.60;;;1.13;;
10126;SDS011;13080;42.608;23.362;2023-11-19T04:14:23;1.98;;;1.38;;
10126;SDS011;13080;42.608;23.362;2023-11-19T04:16:50;4.53;;;1.63;;
10126;SDS011;13080;42.608;23.362;2023-11-19T04:19:17;3.47;;;1.92;;
10126;SDS011;13080;42.608;23.362;2023-11-19T04:21:44;1.90;;;1.70;;
10126;SDS011;13080;42.608;23.362;2023-11-19T04:24:10;3.03;;;1.85;;
10126;SDS011;13080;42.608;23.362;2023-11-19T04:26:40;3.33;;;2.03;;
10126;SDS011;13080;42.608;23.362;2023-11-19T04:29:09;2.97;;;1.83;;
10126;SDS011;13080;42.608;23.362;2023-11-19T04:31:37;3.78;;;2.10;;
10126;SDS011;13080;42.608;23.362;2023-11-19T04:34:05;2.58;;;1.65;;
10126;SDS011;13080;42.608;23.362;2023-11-19T04:36:34;2.05;;;1.60;;
10126;SDS011;13080;42.608;23.362;2023-11-19T04:39:02;2.40;;;1.60;;
10126;SDS011;13080;42.608;23.362;2023-11-19T04:41:33;2.90;;;1.95;;
10126;SDS011;13080;42.608;23.362;2023-11-19T04:44:02;3.53;;;1.98;;
10126;SDS011;13080;42.608;23.362;2023-11-19T04:46:30;3.50;;;2.15;;
10126;SDS011;13080;42.608;23.362;2023-11-19T04:48:57;4.00;;;1.75;;
10126;SDS011;13080;42.608;23.362;2023-11-19T04:51:23;3.05;;;1.80;;
10126;SDS011;13080;42.608;23.362;2023-11-19T04:53:50;8.25;;;3.90;;
10126;SDS011;13080;42.608;23.362;2023-11-19T04:56:17;3.85;;;2.17;;
10126;SDS011;13080;42.608;23.362;2023-11-19T04:58:45;4.22;;;1.98;;
10126;SDS011;13080;42.608;23.362;2023-11-19T05:01:13;3.13;;;1.90;;
10126;SDS011;13080;42.608;23.362;2023-11-19T05:03:43;2.17;;;1.92;;
10126;SDS011;13080;42.608;23.362;2023-11-19T05:06:10;2.70;;;1.83;;
10126;SDS011;13080;42.608;23.362;2023-11-19T05:08:37;2.40;;;1.33;;
10126;SDS011;13080;42.608;23.362;2023-11-19T05:11:04;2.40;;;2.08;;
10126;SDS011;13080;42.608;23.362;2023-11-19T05:13:31;2.83;;;1.80;;
10126;SDS011;13080;42.608;23.362;2023-11-19T05:15:58;4.30;;;2.05;;
10126;SDS011;13080;42.608;23.362;2023-11-19T05:18:25;9.00;;;1.92;;
10126;SDS011;13080;42.608;23.362;2023-11-19T05:20:53;2.00;;;1.52;;
10126;SDS011;13080;42.608;23.362;2023-11-19T05:23:20;3.20;;;2.00;;
10126;SDS011;13080;42.608;23.362;2023-11-19T05:25:46;2.70;;;1.77;;
10126;SDS011;13080;42.608;23.362;2023-11-19T05:28:13;2.65;;;1.70;;
10126;SDS011;13080;42.608;23.362;2023-11-19T05:30:40;4.03;;;1.77;;
10126;SDS011;13080;42.608;23.362;2023-11-19T05:33:07;2.40;;;2.08;;
10126;SDS011;13080;42.608;23.362;2023-11-19T05:35:34;3.50;;;1.55;;
10126;SDS011;13080;42.608;23.362;2023-11-19T05:38:03;2.35;;;1.92;;
10126;SDS011;13080;42.608;23.362;2023-11-19T05:40:31;3.08;;;2.60;;
10126;SDS011;13080;42.608;23.362;2023-11-19T05:42:58;3.03;;;1.92;;
10126;SDS011;13080;42.608;23.362;2023-11-19T05:45:25;5.60;;;1.85;;
10126;SDS011;13080;42.608;23.362;2023-11-19T05:47:51;2.17;;;1.90;;
10126;SDS011;13080;42.608;23.362;2023-11-19T05:50:18;4.07;;;1.92;;
10126;SDS011;13080;42.608;23.362;2023-11-19T05:52:45;4.10;;;2.40;;
10126;SDS011;13080;42.608;23.362;2023-11-19T05:55:14;3.00;;;2.03;;
10126;SDS011;13080;42.608;23.362;2023-11-19T05:57:41;2.83;;;1.38;;
10126;SDS011;13080;42.608;23.362;2023-11-19T06:00:08;3.67;;;2.10;;
10126;SDS011;13080;42.608;23.362;2023-11-19T06:02:38;4.65;;;1.98;;
10126;SDS011;13080;42.608;23.362;2023-11-19T06:05:05;5.55;;;1.77;;
10126;SDS011;13080;42.608;23.362;2023-11-19T06:07:32;3.38;;;2.03;;
10126;SDS011;13080;42.608;23.362;2023-11-19T06:10:00;2.55;;;2.10;;
10126;SDS011;13080;42.608;23.362;2023-11-19T06:12:29;2.50;;;1.98;;
10126;SDS011;13080;42.608;23.362;2023-11-19T06:14:57;2.78;;;1.67;;
10126;SDS011;13080;42.608;23.362;2023-11-19T06:17:24;3.53;;;2.00;;
10126;SDS011;13080;42.608;23.362;2023-11-19T06:19:51;3.88;;;2.13;;
10126;SDS011;13080;42.608;23.362;2023-11-19T06:22:18;2.33;;;1.38;;
10126;SDS011;13080;42.608;23.362;2023-11-19T06:24:45;2.95;;;1.90;;
10126;SDS011;13080;42.608;23.362;2023-11-19T06:27:11;2.40;;;1.90;;
10126;SDS011;13080;42.608;23.362;2023-11-19T06:29:41;3.55;;;1.90;;
10126;SDS011;13080;42.608;23.362;2023-11-19T06:32:08;3.10;;;2.08;;
10126;SDS011;13080;42.608;23.362;2023-11-19T06:34:35;3.03;;;1.98;;
10126;SDS011;13080;42.608;23.362;2023-11-19T06:37:02;2.95;;;1.92;;
10126;SDS011;13080;42.608;23.362;2023-11-19T06:39:29;2.13;;;1.70;;
10126;SDS011;13080;42.608;23.362;2023-11-19T06:41:56;2.63;;;1.90;;
10126;SDS011;13080;42.608;23.362;2023-11-19T06:44:23;2.10;;;1.90;;
10126;SDS011;13080;42.608;23.362;2023-11-19T06:46:51;2.90;;;2.13;;
10126;SDS011;13080;42.608;23.362;2023-11-19T06:49:18;2.55;;;1.38;;
10126;SDS011;13080;42.608;23.362;2023-11-19T06:51:45;2.33;;;1.63;;
10126;SDS011;13080;42.608;23.362;2023-11-19T06:54:12;4.07;;;2.20;;
10126;SDS011;13080;42.608;23.362;2023-11-19T06:56:39;4.13;;;2.20;;
10126;SDS011;13080;42.608;23.362;2023-11-19T06:59:06;3.72;;;2.30;;
10126;SDS011;13080;42.608;23.362;2023-11-19T07:01:34;3.90;;;2.33;;
10126;SDS011;13080;42.608;23.362;2023-11-19T07:04:03;3.25;;;2.08;;
10126;SDS011;13080;42.608;23.362;2023-11-19T07:06:34;5.63;;;2.25;;
10126;SDS011;13080;42.608;23.362;2023-11-19T07:09:01;3.95;;;2.13;;
10126;SDS011;13080;42.608;23.362;2023-11-19T07:11:34;2.25;;;1.75;;
10126;SDS011;13080;42.608;23.362;2023-11-19T07:14:02;4.13;;;2.42;;
10126;SDS011;13080;42.608;23.362;2023-11-19T07:16:29;4.30;;;2.10;;
10126;SDS011;13080;42.608;23.362;2023-11-19T07:18:56;1.77;;;1.58;;
10126;SDS011;13080;42.608;23.362;2023-11-19T07:21:26;2.90;;;2.10;;
10126;SDS011;13080;42.608;23.362;2023-11-19T07:23:54;3.00;;;2.25;;
10126;SDS011;13080;42.608;23.362;2023-11-19T07:26:21;3.83;;;2.42;;
10126;SDS011;13080;42.608;23.362;2023-11-19T07:28:48;3.85;;;2.72;;
10126;SDS011;13080;42.608;23.362;2023-11-19T07:31:15;3.35;;;2.47;;
10126;SDS011;13080;42.608;23.362;2023-11-19T07:33:45;3.30;;;2.33;;
10126;SDS011;13080;42.608;23.362;2023-11-19T07:36:14;2.78;;;2.33;;
10126;SDS011;13080;42.608;23.362;2023-11-19T07:38:42;4.35;;;2.45;;
10126;SDS011;13080;42.608;23.362;2023-11-19T07:41:09;2.53;;;2.08;;
10126;SDS011;13080;42.608;23.362;2023-11-19T07:43:38;2.85;;;2.03;;
10126;SDS011;13080;42.608;23.362;2023-11-19T07:46:10;3.25;;;2.40;;
10126;SDS011;13080;42.608;23.362;2023-11-19T07:48:38;7.07;;;2.88;;
10126;SDS011;13080;42.608;23.362;2023-11-19T07:51:04;5.25;;;2.28;;
10126;SDS011;13080;42.608;23.362;2023-11-19T07:53:30;5.32;;;2.40;;
10126;SDS011;13080;42.608;23.362;2023-11-19T07:55:59;3.22;;;2.30;;
10126;SDS011;13080;42.608;23.362;2023-11-19T07:58:26;2.25;;;1.95;;
10126;SDS011;13080;42.608;23.362;2023-11-19T08:00:52;2.10;;;1.77;;
10126;SDS011;13080;42.608;23.362;2023-11-19T08:03:19;2.72;;;1.92;;
10126;SDS011;13080;42.608;23.362;2023-11-19T08:05:47;3.03;;;2.13;;
10126;SDS011;13080;42.608;23.362;2023-11-19T08:08:14;3.08;;;1.85;;
10126;SDS011;13080;42.608;23.362;2023-11-19T08:10:41;2.10;;;1.50;;
10126;SDS011;13080;42.608;23.362;2023-11-19T08:13:10;4.25;;;1.83;;
10126;SDS011;13080;42.608;23.362;2023-11-19T08:15:37;2.47;;;1.75;;
10126;SDS011;13080;42.608;23.362;2023-11-19T08:18:03;3.55;;;1.88;;
10126;SDS011;13080;42.608;23.362;2023-11-19T08:20:30;3.30;;;2.47;;
10126;SDS011;13080;42.608;23.362;2023-11-19T08:22:57;4.45;;;2.17;;
10126;SDS011;13080;42.608;23.362;2023-11-19T08:25:24;5.38;;;2.83;;
10126;SDS011;13080;42.608;23.362;2023-11-19T08:27:50;3.38;;;2.10;;
10126;SDS011;13080;42.608;23.362;2023-11-19T08:30:19;2.92;;;2.20;;
10126;SDS011;13080;42.608;23.362;2023-11-19T08:32:46;2.28;;;1.88;;
10126;SDS011;13080;42.608;23.362;2023-11-19T08:35:12;3.22;;;2.20;;
10126;SDS011;13080;42.608;23.362;2023-11-19T08:37:41;6.35;;;2.80;;
10126;SDS011;13080;42.608;23.362;2023-11-19T08:40:08;2.65;;;2.17;;
10126;SDS011;13080;42.608;23.362;2023-11-19T08:42:36;2.08;;;1.88;;
10126;SDS011;13080;42.608;23.362;2023-11-19T08:45:04;2.35;;;2.15;;
10126;SDS011;13080;42.608;23.362;2023-11-19T08:47:33;2.78;;;1.92;;
10126;SDS011;13080;42.608;23.362;2023-11-19T08:50:00;2.95;;;2.63;;
10126;SDS011;13080;42.608;23.362;2023-11-19T08:52:26;4.05;;;2.40;;
10126;SDS011;13080;42.608;23.362;2023-11-19T08:54:53;2.80;;;1.90;;
10126;SDS011;13080;42.608;23.362;2023-11-19T08:57:20;2.88;;;2.08;;
10126;SDS011;13080;42.608;23.362;2023-11-19T08:59:47;2.75;;;1.75;;
10126;SDS011;13080;42.608;23.362;2023-11-19T09:02:14;3.40;;;2.42;;
10126;SDS011;13080;42.608;23.362;2023-11-19T09:04:42;3.90;;;2.28;;
10126;SDS011;13080;42.608;23.362;2023-11-19T09:07:09;5.63;;;2.13;;
10126;SDS011;13080;42.608;23.362;2023-11-19T09:09:36;2.80;;;2.05;;
10126;SDS011;13080;42.608;23.362;2023-11-19T09:12:03;3.55;;;2.50;;
10126;SDS011;13080;42.608;23.362;2023-11-19T09:14:30;3.92;;;2.10;;
10126;SDS011;13080;42.608;23.362;2023-11-19T09:16:57;2.03;;;1.67;;
10126;SDS011;13080;42.608;23.362;2023-11-19T09:19:24;4.40;;;1.63;;
10126;SDS011;13080;42.608;23.362;2023-11-19T09:21:52;2.00;;;1.80;;
10126;SDS011;13080;42.608;23.362;2023-11-19T09:24:19;2.35;;;1.77;;
10126;SDS011;13080;42.608;23.362;2023-11-19T09:26:46;3.03;;;1.95;;
10126;SDS011;13080;42.608;23.362;2023-11-19T09:29:13;2.67;;;2.10;;
10126;SDS011;13080;42.608;23.362;2023-11-19T09:31:41;3.20;;;2.00;;
10126;SDS011;13080;42.608;23.362;2023-11-19T09:34:08;2.08;;;1.58;;
10126;SDS011;13080;42.608;23.362;2023-11-19T09:36:35;3.95;;;2.10;;
10126;SDS011;13080;42.608;23.362;2023-11-19T09:39:03;2.67;;;1.75;;
10126;SDS011;13080;42.608;23.362;2023-11-19T09:41:31;3.80;;;2.42;;
10126;SDS011;13080;42.608;23.362;2023-11-19T09:43:59;3.13;;;1.92;;
10126;SDS011;13080;42.608;23.362;2023-11-19T09:46:26;3.92;;;2.05;;
10126;SDS011;13080;42.608;23.362;2023-11-19T09:48:54;1.73;;;1.60;;
10126;SDS011;13080;42.608;23.362;2023-11-19T09:51:24;2.17;;;1.67;;
10126;SDS011;13080;42.608;23.362;2023-11-19T09:53:51;3.97;;;2.00;;
10126;SDS011;13080;42.608;23.362;2023-11-19T09:56:19;2.47;;;1.83;;
10126;SDS011;13080;42.608;23.362;2023-11-19T09:58:47;3.28;;;2.42;;
10126;SDS011;13080;42.608;23.362;2023-11-19T10:01:14;3.10;;;2.38;;
10126;SDS011;13080;42.608;23.362;2023-11-19T10:03:41;5.32;;;2.50;;
10126;SDS011;13080;42.608;23.362;2023-11-19T10:06:09;5.35;;;3.30;;
10126;SDS011;13080;42.608;23.362;2023-11-19T10:08:37;3.70;;;2.58;;
10126;SDS011;13080;42.608;23.362;2023-11-19T10:11:04;2.78;;;2.53;;
10126;SDS011;13080;42.608;23.362;2023-11-19T10:13:33;2.33;;;2.10;;
10126;SDS011;13080;42.608;23.362;2023-11-19T10:16:03;3.60;;;2.28;;
10126;SDS011;13080;42.608;23.362;2023-11-19T10:18:33;3.97;;;2.05;;
10126;SDS011;13080;42.608;23.362;2023-11-19T10:21:03;3.00;;;2.13;;
10126;SDS011;13080;42.608;23.362;2023-11-19T10:23:30;4.03;;;2.38;;
10126;SDS011;13080;42.608;23.362;2023-11-19T10:26:01;3.55;;;2.60;;
10126;SDS011;13080;42.608;23.362;2023-11-19T10:28:38;3.80;;;2.80;;
10126;SDS011;13080;42.608;23.362;2023-11-19T10:31:05;3.92;;;2.28;;
10126;SDS011;13080;42.608;23.362;2023-11-19T10:33:32;3.83;;;1.77;;
10126;SDS011;13080;42.608;23.362;2023-11-19T10:35:59;2.38;;;1.60;;
10126;SDS011;13080;42.608;23.362;2023-11-19T10:38:26;3.70;;;2.70;;
10126;SDS011;13080;42.608;23.362;2023-11-19T10:40:53;5.00;;;2.45;;
10126;SDS011;13080;42.608;23.362;2023-11-19T10:43:20;2.05;;;1.73;;
10126;SDS011;13080;42.608;23.362;2023-11-19T10:45:50;2.30;;;1.63;;
10126;SDS011;13080;42.608;23.362;2023-11-19T10:48:17;2.40;;;1.42;;
10126;SDS011;13080;42.608;23.362;2023-11-19T10:50:45;2.90;;;1.67;;
10126;SDS011;13080;42.608;23.362;2023-11-19T10:53:14;6.00;;;2.97;;
10126;SDS011;13080;42.608;23.362;2023-11-19T10:55:41;4.35;;;2.10;;
10126;SDS011;13080;42.608;23.362;2023-11-19T10:58:14;2.88;;;1.75;;
10126;SDS011;13080;42.608;23.362;2023-11-19T11:00:43;2.63;;;2.00;;
10126;SDS011;13080;42.608;23.362;2023-11-19T11:03:17;4.88;;;2.63;;
10126;SDS011;13080;42.608;23.362;2023-11-19T11:05:46;3.80;;;2.17;;
10126;SDS011;13080;42.608;23.362;2023-11-19T11:08:13;3.15;;;2.05;;
10126;SDS011;13080;42.608;23.362;2023-11-19T11:10:42;2.10;;;1.70;;
10126;SDS011;13080;42.608;23.362;2023-11-19T11:13:11;3.60;;;2.03;;
10126;SDS011;13080;42.608;23.362;2023-11-19T11:15:40;3.72;;;2.25;;
10126;SDS011;13080;42.608;23.362;2023-11-19T11:18:08;4.55;;;2.05;;
10126;SDS011;13080;42.608;23.362;2023-11-19T11:20:37;3.67;;;2.00;;
10126;SDS011;13080;42.608;23.362;2023-11-19T11:23:11;3.75;;;2.25;;
10126;SDS011;13080;42.608;23.362;2023-11-19T11:26:05;3.75;;;2.72;;
10126;SDS011;13080;42.608;23.362;2023-11-19T11:28:46;3.50;;;1.88;;
10126;SDS011;13080;42.608;23.362;2023-11-19T11:31:24;2.67;;;1.95;;
10126;SDS011;13080;42.608;23.362;2023-11-19T11:34:03;2.65;;;1.98;;
10126;SDS011;13080;42.608;23.362;2023-11-19T11:36:45;3.92;;;2.13;;
10126;SDS011;13080;42.608;23.362;2023-11-19T11:39:20;5.68;;;2.00;;
10126;SDS011;13080;42.608;23.362;2023-11-19T11:42:02;3.28;;;1.75;;
10126;SDS011;13080;42.608;23.362;2023-11-19T11:45:01;2.40;;;2.20;;
10126;SDS011;13080;42.608;23.362;2023-11-19T11:50:49;3.17;;;1.80;;
10126;SDS011;13080;42.608;23.362;2023-11-19T11:53:17;3.13;;;1.90;;
10126;SDS011;13080;42.608;23.362;2023-11-19T11:55:57;3.85;;;2.30;;
10126;SDS011;13080;42.608;23.362;2023-11-19T11:58:27;3.35;;;2.20;;
10126;SDS011;13080;42.608;23.362;2023-11-19T12:00:56;3.47;;;2.10;;
10126;SDS011;13080;42.608;23.362;2023-11-19T12:03:26;2.15;;;1.63;;
10126;SDS011;13080;42.608;23.362;2023-11-19T12:05:54;2.63;;;1.90;;
10126;SDS011;13080;42.608;23.362;2023-11-19T12:08:24;1.88;;;1.35;;
10126;SDS011;13080;42.608;23.362;2023-11-19T12:10:53;2.58;;;1.85;;
10126;SDS011;13080;42.608;23.362;2023-11-19T12:13:23;2.75;;;1.80;;
10126;SDS011;13080;42.608;23.362;2023-11-19T12:16:08;2.58;;;1.73;;
10126;SDS011;13080;42.608;23.362;2023-11-19T12:18:36;2.65;;;2.00;;
10126;SDS011;13080;42.608;23.362;2023-11-19T12:21:06;2.10;;;1.63;;
10126;SDS011;13080;42.608;23.362;2023-11-19T12:23:36;2.28;;;1.70;;
10126;SDS011;13080;42.608;23.362;2023-11-19T12:26:34;2.63;;;1.65;;
10126;SDS011;13080;42.608;23.362;2023-11-19T12:29:02;4.40;;;1.73;;
10126;SDS011;13080;42.608;23.362;2023-11-19T12:31:33;2.78;;;1.63;;
10126;SDS011;13080;42.608;23.362;2023-11-19T12:34:08;2.58;;;1.88;;
10126;SDS011;13080;42.608;23.362;2023-11-19T12:36:37;3.33;;;2.40;;
10126;SDS011;13080;42.608;23.362;2023-11-19T12:39:06;2.97;;;1.90;;
10126;SDS011;13080;42.608;23.362;2023-11-19T12:41:48;4.50;;;1.83;;
10126;SDS011;13080;42.608;23.362;2023-11-19T12:44:15;2.42;;;1.63;;
10126;SDS011;13080;42.608;23.362;2023-11-19T12:46:42;2.40;;;1.70;;
10126;SDS011;13080;42.608;23.362;2023-11-19T12:49:09;2.03;;;1.50;;
10126;SDS011;13080;42.608;23.362;2023-11-19T12:51:37;3.75;;;2.53;;
10126;SDS011;13080;42.608;23.362;2023-11-19T12:54:06;1.83;;;1.45;;
10126;SDS011;13080;42.608;23.362;2023-11-19T12:56:32;3.15;;;2.30;;
10126;SDS011;13080;42.608;23.362;2023-11-19T12:59:09;4.45;;;1.90;;
10126;SDS011;13080;42.608;23.362;2023-11-19T13:01:37;2.50;;;1.65;;
10126;SDS011;13080;42.608;23.362;2023-11-19T13:04:15;3.00;;;2.30;;
10126;SDS011;13080;42.608;23.362;2023-11-19T13:06:44;4.53;;;2.10;;
10126;SDS011;13080;42.608;23.362;2023-11-19T13:09:22;5.80;;;2.95;;
10126;SDS011;13080;42.608;23.362;2023-11-19T13:11:50;4.18;;;2.60;;
10126;SDS011;13080;42.608;23.362;2023-11-19T13:14:17;4.82;;;3.22;;
10126;SDS011;13080;42.608;23.362;2023-11-19T13:16:45;9.57;;;2.88;;
10126;SDS011;13080;42.608;23.362;2023-11-19T13:19:12;3.70;;;2.47;;
10126;SDS011;13080;42.608;23.362;2023-11-19T13:21:39;6.32;;;3.08;;
10126;SDS011;13080;42.608;23.362;2023-11-19T13:24:05;4.75;;;2.75;;
10126;SDS011;13080;42.608;23.362;2023-11-19T13:26:34;4.22;;;2.53;;
10126;SDS011;13080;42.608;23.362;2023-11-19T13:29:01;5.45;;;2.95;;
10126;SDS011;13080;42.608;23.362;2023-11-19T13:31:28;4.78;;;2.63;;
10126;SDS011;13080;42.608;23.362;2023-11-19T13:33:54;3.35;;;2.30;;
10126;SDS011;13080;42.608;23.362;2023-11-19T13:36:21;6.00;;;3.03;;
10126;SDS011;13080;42.608;23.362;2023-11-19T13:38:48;4.35;;;2.58;;
10126;SDS011;13080;42.608;23.362;2023-11-19T13:41:15;3.92;;;2.58;;
10126;SDS011;13080;42.608;23.362;2023-11-19T13:43:43;6.88;;;3.15;;
10126;SDS011;13080;42.608;23.362;2023-11-19T13:46:10;6.20;;;4.10;;
10126;SDS011;13080;42.608;23.362;2023-11-19T13:48:37;8.60;;;4.00;;
10126;SDS011;13080;42.608;23.362;2023-11-19T13:51:04;10.88;;;5.85;;
10126;SDS011;13080;42.608;23.362;2023-11-19T13:53:31;5.72;;;3.83;;
10126;SDS011;13080;42.608;23.362;2023-11-19T13:55:58;9.55;;;4.25;;
10126;SDS011;13080;42.608;23.362;2023-11-19T13:58:25;3.25;;;2.42;;
10126;SDS011;13080;42.608;23.362;2023-11-19T14:00:53;4.53;;;2.08;;
10126;SDS011;13080;42.608;23.362;2023-11-19T14:03:20;3.95;;;1.95;;
10126;SDS011;13080;42.608;23.362;2023-11-19T14:05:46;2.75;;;1.98;;
10126;SDS011;13080;42.608;23.362;2023-11-19T14:08:17;4.05;;;3.40;;
10126;SDS011;13080;42.608;23.362;2023-11-19T14:10:44;4.40;;;2.22;;
10126;SDS011;13080;42.608;23.362;2023-11-19T14:13:11;3.80;;;2.25;;
10126;SDS011;13080;42.608;23.362;2023-11-19T14:15:40;3.75;;;2.28;;
10126;SDS011;13080;42.608;23.362;2023-11-19T14:18:08;8.35;;;3.42;;
10126;SDS011;13080;42.608;23.362;2023-11-19T14:20:35;7.55;;;3.70;;
10126;SDS011;13080;42.608;23.362;2023-11-19T14:23:03;8.35;;;3.08;;
10126;SDS011;13080;42.608;23.362;2023-11-19T14:25:29;3.35;;;2.63;;
10126;SDS011;13080;42.608;23.362;2023-11-19T14:27:56;5.07;;;3.75;;
10126;SDS011;13080;42.608;23.362;2023-11-19T14:30:23;13.38;;;7.25;;
10126;SDS011;13080;42.608;23.362;2023-11-19T14:32:50;7.45;;;3.70;;
10126;SDS011;13080;42.608;23.362;2023-11-19T14:35:18;18.67;;;7.60;;
10126;SDS011;13080;42.608;23.362;2023-11-19T14:37:45;18.38;;;6.18;;
10126;SDS011;13080;42.608;23.362;2023-11-19T14:40:12;9.73;;;4.88;;
10126;SDS011;13080;42.608;23.362;2023-11-19T14:42:39;8.10;;;4.40;;
10126;SDS011;13080;42.608;23.362;2023-11-19T14:45:06;10.05;;;4.47;;